罗盘
风向 的 风向 040° 多倫多皮爾遜國際機場 6L/24R
风向 到 风: 8 kt, 阵阵 15 kt, 3 beaufort

8 kt

1 kt
改变
0 1.000 2.000 3.000 4.000 5.000
没有云
METAR CYTZ 160900Z AUTO 04008G15KT 9SM CLR 21/12 A3003 RMK SLP170 DENSITY ALT 900FT

METAR 多倫多皮爾遜國際機場 - CYYZ/YYZ

多倫多皮爾遜國際機場是Toronto,加拿大中的大型机场。 该机场有6条跑道: 6L/24R, 6R/24L, 5/23, 15L/33R, 15R/33L 和 15/33. 该领域的国际民航组织标志是CYYZ 它的国际航空运输协会代码是YYZ.

这份报告是针对2022年8月16日 5:00 上午, 当地时间在比利·畢曉普多倫多市機場进行的。

机场观察

风向为040°,速度为8 kt。 已测得15 kt的阵风。

可见度为9 mi。

有没有云。 没有观察到天花板。

温度和风寒是70 °F。 露点为54 °F,相对湿度为57%。 海平面上的气压为30,03 inHg (QNH)。

白天

今天,太阳从6:24 上午升起,在8:21 下午降落。 这适用于多倫多皮爾遜國際機場,世界夏令时可能有所不同。 当地时间与世界标准时间之间的时差为-4 小时。 夏令时目前正在进行中。

公司介绍

我们没有关于这个机场的公司信息。

体会

到Vliegles.nl去找飞行课程,跳伞和其他飞行体验。 浏览页面,了解多倫多皮爾遜國際機場附近所有可用的活动。 你也可以使用搜索功能来寻找你所在地附近的特定飞行课程、跳伞或其他飞行体验。

跑道

Id 标题 侧风 逆风 侧风 %
6L/24R 047°-227° 8-15 kt 12 %
6R/24L 047°-227° 8-15 kt 12 %
5/23 047°-227° 8-15 kt 12 %
15L/33R 137°-317° 8-15 kt 99 %
15R/33L 137°-317° 8-15 kt 99 %
15/33 137°-317° 8-15 kt 99 %

逆风成分最大的方向会被突出显示,并用于横风计算。 这并不一定意味着这个方向在使用。

乌云

- CLR 没有云

温度 & 天气

温度 70 °F
露点 54 °F
相对湿度 57%
Kp-index 0  

评论

SLP170海平面压力为30,03 inHg (30,03 inHg)
DENSITY ALT 900FT

白天

日出
6:23 上午 (28m)
中午
1:21 下午
日落
8:20 下午

小工具

你想在你的网站上有一个关于多倫多皮爾遜國際機場的当前航空天气(METAR)的小部件吗?

</> 显示HTML代码

我们和第三方通过cookies跟踪您在我们网站上的上网行为。如果您继续,我们认为您同意我们的cookie政策。 了解更多